createdAt,value
2019-05-03T00:01:44.250Z,9.57
2019-05-03T00:04:15.692Z,13.13
2019-05-03T00:06:46.073Z,9.80
2019-05-03T00:09:17.606Z,12.13
2019-05-03T00:11:47.984Z,11.53
2019-05-03T00:14:18.487Z,10.17
2019-05-03T00:16:49.819Z,9.90
2019-05-03T00:19:21.954Z,12.33
2019-05-03T00:21:52.640Z,12.33
2019-05-03T00:24:23.072Z,9.70
2019-05-03T00:26:53.488Z,13.50
2019-05-03T00:29:23.850Z,11.10
2019-05-03T00:31:54.193Z,12.70
2019-05-03T00:34:29.092Z,14.40
2019-05-03T00:37:14.906Z,12.60
2019-05-03T00:39:41.859Z,13.07
2019-05-03T00:42:12.666Z,14.17
2019-05-03T00:44:43.169Z,12.10
2019-05-03T00:47:13.640Z,13.93
2019-05-03T00:49:44.167Z,14.83
2019-05-03T00:52:14.598Z,12.40
2019-05-03T00:54:45.008Z,15.10
2019-05-03T00:57:15.376Z,12.93
2019-05-03T00:59:45.802Z,14.63
2019-05-03T01:02:16.193Z,14.00
2019-05-03T01:04:46.552Z,14.30
2019-05-03T01:07:17.029Z,14.07
2019-05-03T01:09:47.475Z,12.70
2019-05-03T01:12:17.914Z,12.97
2019-05-03T01:14:51.516Z,13.20
2019-05-03T01:17:22.545Z,12.07
2019-05-03T01:19:59.218Z,13.83
2019-05-03T01:22:23.772Z,12.07
2019-05-03T01:24:54.189Z,11.50
2019-05-03T01:27:24.774Z,12.87
2019-05-03T01:29:55.102Z,12.17
2019-05-03T01:32:25.572Z,16.00
2019-05-03T01:34:55.896Z,13.97
2019-05-03T01:37:26.619Z,12.60
2019-05-03T01:39:57.019Z,13.43
2019-05-03T01:42:27.437Z,13.23
2019-05-03T01:44:57.924Z,11.17
2019-05-03T01:47:38.952Z,12.97
2019-05-03T01:50:18.624Z,10.50
2019-05-03T01:52:49.582Z,11.77
2019-05-03T01:55:20.004Z,9.97
2019-05-03T01:57:52.401Z,12.40
2019-05-03T02:00:29.569Z,13.10
2019-05-03T02:03:06.591Z,11.83
2019-05-03T02:05:55.914Z,10.90
2019-05-03T02:08:26.362Z,8.80
2019-05-03T02:10:56.704Z,8.77
2019-05-03T02:13:27.073Z,8.10
2019-05-03T02:15:57.409Z,6.57
2019-05-03T02:18:27.873Z,6.37
2019-05-03T02:20:58.214Z,8.33
2019-05-03T02:23:28.619Z,7.17
2019-05-03T02:26:03.068Z,6.33
2019-05-03T02:28:32.772Z,5.03
2019-05-03T02:31:03.653Z,5.33
2019-05-03T02:34:32.778Z,5.97
2019-05-03T02:36:39.131Z,4.73
2019-05-03T02:39:17.765Z,5.70
2019-05-03T02:41:42.051Z,6.63
2019-05-03T02:44:16.570Z,6.07
2019-05-03T02:46:59.014Z,5.00
2019-05-03T02:49:35.312Z,3.20
2019-05-03T02:52:09.664Z,3.63
2019-05-03T02:54:40.075Z,4.50
2019-05-03T02:57:10.550Z,3.97
2019-05-03T02:59:45.341Z,6.20
2019-05-03T03:02:10.730Z,3.63
2019-05-03T03:04:41.083Z,4.77
2019-05-03T03:07:12.144Z,2.47
2019-05-03T03:09:45.130Z,2.50
2019-05-03T03:12:15.755Z,3.47
2019-05-03T03:14:47.505Z,1.93
2019-05-03T03:17:20.997Z,2.87
2019-05-03T03:19:55.244Z,5.40
2019-05-03T03:22:29.792Z,3.70
2019-05-03T03:25:05.293Z,3.47
2019-05-03T03:27:40.317Z,2.10
2019-05-03T03:30:30.614Z,3.57
2019-05-03T03:33:02.970Z,2.23
2019-05-03T03:35:38.156Z,5.50
2019-05-03T03:38:08.642Z,1.63
2019-05-03T03:40:40.345Z,2.00
2019-05-03T03:43:15.680Z,1.03
2019-05-03T03:45:47.909Z,1.67
2019-05-03T03:48:21.149Z,1.70
2019-05-03T03:50:56.118Z,0.97
2019-05-03T03:53:28.332Z,1.43
2019-05-03T03:56:01.976Z,2.63
2019-05-03T03:58:35.611Z,2.83
2019-05-03T04:01:06.069Z,2.37
2019-05-03T04:03:36.788Z,3.30
2019-05-03T04:06:11.079Z,1.67
2019-05-03T04:08:37.209Z,3.03
2019-05-03T04:11:07.750Z,1.97
2019-05-03T04:13:40.827Z,1.87
2019-05-03T04:16:36.626Z,2.23
2019-05-03T04:19:17.401Z,3.90
2019-05-03T04:21:47.648Z,3.23
2019-05-03T04:24:18.034Z,3.27
2019-05-03T04:27:17.720Z,3.43
2019-05-03T04:29:37.554Z,2.17
2019-05-03T04:32:15.660Z,2.97
2019-05-03T04:35:05.352Z,3.27
2019-05-03T04:40:50.471Z,2.13
2019-05-03T04:41:09.748Z,2.50
2019-05-03T04:43:20.882Z,3.97
2019-05-03T04:46:22.014Z,2.60
2019-05-03T04:49:01.260Z,1.70
2019-05-03T04:51:31.715Z,4.43
2019-05-03T04:54:35.431Z,3.03
2019-05-03T04:57:08.655Z,3.33
2019-05-03T04:59:39.224Z,1.27
2019-05-03T05:02:09.745Z,2.40
2019-05-03T05:04:40.213Z,1.63
2019-05-03T05:07:10.726Z,1.67
2019-05-03T05:09:45.617Z,1.50
2019-05-03T05:12:16.501Z,1.30
2019-05-03T05:14:48.018Z,2.43
2019-05-03T05:17:37.228Z,1.03
2019-05-03T05:20:27.089Z,2.10
2019-05-03T05:23:00.309Z,1.30
2019-05-03T05:25:35.535Z,1.60
2019-05-03T05:28:15.022Z,2.07
2019-05-03T05:30:45.683Z,1.57
2019-05-03T05:33:29.390Z,1.33
2019-05-03T05:35:59.881Z,0.50
2019-05-03T05:38:30.385Z,0.87
2019-05-03T05:41:07.567Z,0.50
2019-05-03T05:43:38.060Z,0.60
2019-05-03T05:46:09.498Z,0.77
2019-05-03T05:48:56.369Z,1.13
2019-05-03T05:51:38.073Z,0.63
2019-05-03T05:54:24.618Z,2.03
2019-05-03T05:57:35.420Z,1.90
2019-05-03T06:00:17.172Z,1.73
2019-05-03T06:02:55.163Z,0.83
2019-05-03T06:05:31.790Z,1.00
2019-05-03T06:08:24.998Z,0.83
2019-05-03T06:14:34.663Z,0.73
2019-05-03T06:17:37.489Z,1.07
2019-05-03T06:20:37.364Z,1.03
2019-05-03T06:23:16.736Z,2.20
2019-05-03T06:25:47.369Z,2.17
2019-05-03T06:28:47.956Z,1.60
2019-05-03T06:32:05.463Z,0.60
2019-05-03T06:38:44.737Z,2.27
2019-05-03T06:41:16.331Z,1.70
2019-05-03T06:43:58.673Z,0.70
2019-05-03T06:46:48.338Z,0.70
2019-05-03T06:49:28.518Z,2.87
2019-05-03T06:52:07.695Z,1.43
2019-05-03T06:54:44.975Z,1.73
2019-05-03T06:57:25.323Z,1.10
2019-05-03T07:00:01.294Z,0.60
2019-05-03T07:02:56.249Z,1.23
2019-05-03T07:05:55.082Z,0.63
2019-05-03T07:09:02.291Z,1.90
2019-05-03T07:11:34.837Z,1.30
2019-05-03T07:14:08.375Z,0.97
2019-05-03T07:16:38.774Z,1.53
2019-05-03T07:19:09.647Z,1.27
2019-05-03T07:21:44.666Z,2.10
2019-05-03T07:24:40.388Z,3.63
2019-05-03T07:27:06.730Z,1.93
2019-05-03T07:29:37.235Z,1.00
2019-05-03T07:32:07.790Z,1.90
2019-05-03T07:34:38.221Z,3.60
2019-05-03T07:37:08.638Z,1.50
2019-05-03T07:39:46.816Z,1.10
2019-05-03T07:42:17.209Z,1.37
2019-05-03T07:48:08.350Z,4.13
2019-05-03T07:50:38.811Z,4.93
2019-05-03T07:53:09.380Z,2.70
2019-05-03T07:56:10.569Z,2.53
2019-05-03T07:58:52.945Z,3.40
2019-05-03T08:01:28.340Z,2.47
2019-05-03T08:03:58.951Z,4.13
2019-05-03T08:06:29.350Z,1.60
2019-05-03T08:08:59.940Z,2.73
2019-05-03T08:11:30.399Z,2.93
2019-05-03T08:14:00.970Z,4.07
2019-05-03T08:16:40.945Z,2.20
2019-05-03T08:19:12.389Z,1.73
2019-05-03T08:21:45.158Z,1.50
2019-05-03T08:24:16.694Z,2.37
2019-05-03T08:26:48.080Z,2.90
2019-05-03T08:29:20.099Z,1.33
2019-05-03T08:32:18.421Z,1.17
2019-05-03T08:35:06.205Z,0.90
2019-05-03T08:37:45.293Z,2.00
2019-05-03T08:40:20.649Z,1.00
2019-05-03T08:42:51.357Z,2.57
2019-05-03T08:45:28.174Z,2.73
2019-05-03T08:48:16.574Z,3.30
2019-05-03T08:50:49.507Z,2.00
2019-05-03T08:53:19.994Z,3.50
2019-05-03T08:55:50.574Z,4.07
2019-05-03T08:58:23.176Z,3.93
2019-05-03T09:01:02.733Z,4.50
2019-05-03T09:03:38.448Z,5.87
2019-05-03T09:06:10.121Z,5.13
2019-05-03T09:08:42.363Z,5.63
2019-05-03T09:11:16.828Z,6.93
2019-05-03T09:14:48.014Z,7.73
2019-05-03T09:17:19.425Z,8.33
2019-05-03T09:19:50.761Z,8.03
2019-05-03T09:22:21.220Z,10.63
2019-05-03T09:24:51.695Z,9.77
2019-05-03T09:30:59.322Z,12.00
2019-05-03T09:33:29.846Z,15.40
2019-05-03T09:36:00.411Z,13.70
2019-05-03T09:38:31.044Z,14.63
2019-05-03T09:41:01.654Z,15.10
2019-05-03T09:43:32.165Z,26.87
2019-05-03T09:46:05.007Z,15.53
2019-05-03T09:52:08.435Z,15.80
2019-05-03T09:54:45.333Z,17.87
2019-05-03T09:57:15.966Z,16.57
2019-05-03T09:59:57.246Z,16.47
2019-05-03T10:02:44.995Z,14.17
2019-05-03T10:05:16.026Z,13.77
2019-05-03T10:07:50.907Z,14.73
2019-05-03T10:10:24.863Z,18.90
2019-05-03T10:12:56.846Z,14.13
2019-05-03T10:15:51.265Z,16.30
2019-05-03T10:18:26.394Z,13.60
2019-05-03T10:20:57.176Z,14.83
2019-05-03T10:23:45.655Z,12.33
2019-05-03T10:26:24.614Z,15.27
2019-05-03T10:28:56.424Z,15.03
2019-05-03T10:31:35.490Z,15.63
2019-05-03T10:34:09.829Z,14.30
2019-05-03T10:37:00.574Z,15.27
2019-05-03T10:39:29.177Z,16.80
2019-05-03T10:41:59.671Z,16.70
2019-05-03T10:44:30.190Z,16.53
2019-05-03T10:47:00.827Z,17.60
2019-05-03T10:49:31.422Z,17.87
2019-05-03T10:52:05.683Z,16.03
2019-05-03T10:54:36.294Z,17.47
2019-05-03T10:57:15.925Z,15.97
2019-05-03T10:59:48.179Z,16.50
2019-05-03T11:08:14.627Z,15.43
2019-05-03T11:11:15.072Z,22.30
2019-05-03T11:13:49.976Z,15.37
2019-05-03T11:16:23.091Z,15.60
2019-05-03T11:22:09.610Z,16.20
2019-05-03T11:27:44.880Z,16.60
2019-05-03T11:30:52.194Z,16.30
2019-05-03T11:33:35.762Z,13.70
2019-05-03T11:41:55.588Z,14.53
2019-05-03T11:44:44.659Z,14.37
2019-05-03T11:47:19.305Z,16.57
2019-05-03T11:49:58.749Z,15.53
2019-05-03T11:52:29.305Z,16.07
2019-05-03T11:54:59.891Z,16.03
2019-05-03T11:57:36.795Z,17.73
2019-05-03T12:00:08.651Z,13.33
2019-05-03T12:02:55.591Z,16.67
2019-05-03T12:05:29.549Z,12.87
2019-05-03T12:08:01.952Z,13.93
2019-05-03T12:10:50.573Z,13.87
2019-05-03T12:13:28.547Z,15.63
2019-05-03T12:16:17.475Z,15.33
2019-05-03T12:18:54.090Z,13.13
2019-05-03T12:21:37.664Z,12.13
2019-05-03T12:24:09.789Z,13.87
2019-05-03T12:35:25.825Z,12.13
2019-05-03T12:37:56.141Z,12.37
2019-05-03T12:40:26.609Z,13.00
2019-05-03T12:42:57.026Z,11.67
2019-05-03T12:52:16.594Z,11.47
2019-05-03T12:54:55.166Z,11.13
2019-05-03T12:57:34.488Z,11.23
2019-05-03T13:00:48.173Z,10.97
2019-05-03T13:03:31.556Z,11.47
2019-05-03T13:06:04.634Z,12.77
2019-05-03T13:08:45.631Z,12.63
2019-05-03T13:11:16.293Z,10.30
2019-05-03T13:13:55.971Z,12.97
2019-05-03T13:16:26.460Z,11.97
2019-05-03T13:22:26.788Z,12.63
2019-05-03T13:28:34.887Z,13.30
2019-05-03T13:31:06.002Z,11.90
2019-05-03T13:33:45.308Z,11.43
2019-05-03T13:36:15.678Z,9.43
2019-05-03T13:45:39.102Z,11.60
2019-05-03T13:48:09.646Z,9.90
2019-05-03T13:52:48.364Z,9.73
2019-05-03T13:53:09.746Z,14.47
2019-05-03T14:01:35.506Z,10.67
2019-05-03T14:04:06.116Z,8.43
2019-05-03T14:06:56.550Z,7.33
2019-05-03T14:09:27.123Z,8.13
2019-05-03T14:11:57.778Z,8.13
2019-05-03T14:14:32.370Z,9.13
2019-05-03T14:17:05.255Z,7.30
2019-05-03T14:19:37.528Z,7.63
2019-05-03T14:22:09.706Z,9.00
2019-05-03T14:28:25.193Z,8.97
2019-05-03T14:30:55.015Z,8.93
2019-05-03T14:33:28.267Z,8.20
2019-05-03T14:35:57.568Z,8.27
2019-05-03T14:38:36.931Z,7.93
2019-05-03T14:41:10.122Z,7.57
2019-05-03T14:43:42.159Z,8.37
2019-05-03T14:49:11.343Z,7.23
2019-05-03T14:51:45.393Z,7.80
2019-05-03T14:54:26.619Z,8.17
2019-05-03T14:57:21.252Z,7.40
2019-05-03T15:00:09.069Z,8.03
2019-05-03T15:05:20.284Z,7.80
2019-05-03T15:07:56.411Z,8.07
2019-05-03T15:10:26.997Z,9.13
2019-05-03T15:12:57.472Z,7.23
2019-05-03T15:15:30.246Z,8.77
2019-05-03T15:18:02.323Z,8.10
2019-05-03T15:20:35.656Z,6.63
2019-05-03T15:23:14.509Z,8.77
2019-05-03T15:25:38.660Z,7.37
2019-05-03T15:28:28.826Z,6.90
2019-05-03T15:30:59.658Z,7.10
2019-05-03T15:33:32.820Z,8.30
2019-05-03T15:36:11.804Z,7.40
2019-05-03T15:38:41.635Z,7.53
2019-05-03T15:41:14.706Z,7.87
2019-05-03T15:44:05.875Z,6.50
2019-05-03T15:46:36.712Z,9.13
2019-05-03T15:49:10.062Z,6.80
2019-05-03T15:51:42.327Z,7.67
2019-05-03T15:54:24.647Z,7.30
2019-05-03T16:02:58.476Z,6.43
2019-05-03T16:05:32.758Z,6.70
2019-05-03T16:08:04.888Z,7.57
2019-05-03T16:10:36.423Z,7.10
2019-05-03T16:13:08.228Z,8.10
2019-05-03T16:15:38.887Z,8.33
2019-05-03T16:18:09.417Z,7.63
2019-05-03T16:20:39.992Z,6.70
2019-05-03T16:23:10.591Z,7.57
2019-05-03T16:25:41.079Z,10.67
2019-05-03T16:28:24.851Z,6.37
2019-05-03T16:30:57.739Z,6.70
2019-05-03T16:33:29.657Z,6.50
2019-05-03T16:36:07.658Z,7.20
2019-05-03T16:38:29.556Z,8.17
2019-05-03T16:41:00.098Z,7.67
2019-05-03T16:43:30.607Z,8.53
2019-05-03T16:46:01.666Z,6.57
2019-05-03T16:52:22.562Z,8.10
2019-05-03T16:55:04.833Z,10.53
2019-05-03T16:57:27.934Z,6.33
2019-05-03T16:59:59.540Z,8.53
2019-05-03T17:02:34.963Z,8.03
2019-05-03T17:05:26.408Z,7.60
2019-05-03T17:08:14.748Z,8.63
2019-05-03T17:10:49.292Z,8.27
2019-05-03T17:13:39.472Z,7.23
2019-05-03T17:16:10.051Z,8.63
2019-05-03T17:18:44.654Z,9.27
2019-05-03T17:21:16.373Z,7.37
2019-05-03T17:24:15.515Z,8.87
2019-05-03T17:26:58.650Z,5.37
2019-05-03T17:29:35.070Z,6.53
2019-05-03T17:32:11.062Z,8.07
2019-05-03T17:40:54.975Z,8.00
2019-05-03T17:43:31.911Z,8.67
2019-05-03T17:46:04.288Z,5.37
2019-05-03T17:48:38.193Z,6.77
2019-05-03T17:51:10.391Z,6.60
2019-05-03T17:53:48.865Z,6.87
2019-05-03T17:56:41.281Z,6.57
2019-05-03T17:59:35.077Z,4.73
2019-05-03T18:02:23.344Z,6.07
2019-05-03T18:05:15.852Z,5.63
2019-05-03T18:08:17.034Z,6.93
2019-05-03T18:11:06.710Z,8.87
2019-05-03T18:13:37.336Z,7.30
2019-05-03T18:16:14.195Z,8.87
2019-05-03T18:18:55.058Z,6.47
2019-05-03T18:21:34.102Z,8.70
2019-05-03T18:24:05.010Z,7.57
2019-05-03T18:26:35.650Z,6.57
2019-05-03T18:29:06.287Z,8.23
2019-05-03T18:31:37.986Z,6.57
2019-05-03T18:34:18.619Z,8.67
2019-05-03T18:36:46.663Z,8.53
2019-05-03T18:39:36.098Z,7.13
2019-05-03T18:42:00.748Z,7.00
2019-05-03T18:44:51.867Z,7.27
2019-05-03T18:47:25.195Z,10.00
2019-05-03T18:49:56.039Z,7.93
2019-05-03T18:52:34.498Z,9.20
2019-05-03T18:55:07.018Z,8.77
2019-05-03T18:57:39.532Z,7.90
2019-05-03T19:00:11.668Z,7.77
2019-05-03T19:02:45.032Z,8.23
2019-05-03T19:05:17.212Z,11.43
2019-05-03T19:08:04.702Z,9.60
2019-05-03T19:10:55.183Z,9.87
2019-05-03T19:13:32.225Z,15.50
2019-05-03T19:16:39.749Z,12.50
2019-05-03T19:19:17.634Z,9.07
2019-05-03T19:21:51.566Z,11.30
2019-05-03T19:24:24.853Z,11.50
2019-05-03T19:26:55.342Z,9.97
2019-05-03T19:29:25.957Z,10.53
2019-05-03T19:35:44.607Z,10.63
2019-05-03T19:38:27.726Z,11.20
2019-05-03T19:41:02.206Z,11.47
2019-05-03T19:43:27.854Z,9.80
2019-05-03T19:46:07.412Z,10.70
2019-05-03T19:48:46.849Z,10.63
2019-05-03T19:51:17.671Z,11.60
2019-05-03T19:53:52.602Z,10.27
2019-05-03T19:56:25.532Z,9.67
2019-05-03T19:59:01.066Z,11.63
2019-05-03T20:02:02.259Z,11.67
2019-05-03T20:05:05.833Z,9.37
2019-05-03T20:08:05.194Z,8.80
2019-05-03T20:10:35.159Z,8.10
2019-05-03T20:13:09.577Z,9.83
2019-05-03T20:15:40.196Z,10.37
2019-05-03T20:18:10.814Z,10.97
2019-05-03T20:20:41.212Z,17.43
2019-05-03T20:23:11.628Z,14.70
2019-05-03T20:25:42.112Z,8.03
2019-05-03T20:28:15.350Z,9.53
2019-05-03T20:30:46.053Z,9.97
2019-05-03T20:33:16.585Z,9.87
2019-05-03T20:35:47.035Z,9.67
2019-05-03T20:38:17.572Z,13.17
2019-05-03T20:40:47.958Z,11.47
2019-05-03T20:43:44.542Z,10.33
2019-05-03T20:46:28.508Z,11.90
2019-05-03T20:49:01.543Z,13.30
2019-05-03T20:51:32.024Z,16.03
2019-05-03T20:54:04.821Z,10.63
2019-05-03T20:56:35.685Z,11.13
2019-05-03T20:59:06.403Z,9.43
2019-05-03T21:01:36.930Z,10.90
2019-05-03T21:04:08.262Z,10.80
2019-05-03T21:06:39.324Z,9.93
2019-05-03T21:09:09.824Z,12.87
2019-05-03T21:11:42.053Z,12.63
2019-05-03T21:14:12.524Z,11.47
2019-05-03T21:17:20.302Z,10.80
2019-05-03T21:19:59.602Z,17.67
2019-05-03T21:22:35.401Z,10.37
2019-05-03T21:25:15.038Z,18.50
2019-05-03T21:31:10.499Z,9.40
2019-05-03T21:33:41.032Z,7.07
2019-05-03T21:36:11.514Z,6.73
2019-05-03T21:38:48.041Z,7.50
2019-05-03T21:41:18.273Z,6.37
2019-05-03T21:43:51.952Z,8.20
2019-05-03T21:46:25.534Z,8.90
2019-05-03T21:49:04.484Z,10.60
2019-05-03T21:51:34.979Z,8.40
2019-05-03T21:54:06.921Z,10.90
2019-05-03T22:00:10.701Z,10.63
2019-05-03T22:02:42.793Z,6.97
2019-05-03T22:05:14.280Z,7.57
2019-05-03T22:07:45.471Z,8.93
2019-05-03T22:10:16.228Z,7.37
2019-05-03T22:12:50.273Z,12.33
2019-05-03T22:15:30.768Z,12.33
2019-05-03T22:18:24.612Z,8.57
2019-05-03T22:21:05.707Z,11.70
2019-05-03T22:24:10.173Z,7.23
2019-05-03T22:27:01.748Z,9.57
2019-05-03T22:29:35.401Z,12.50
2019-05-03T22:32:05.449Z,10.67
2019-05-03T22:34:35.852Z,9.93
2019-05-03T22:37:17.092Z,9.70
2019-05-03T22:39:49.193Z,11.10
2019-05-03T22:42:20.602Z,9.60
2019-05-03T22:44:51.977Z,12.70
2019-05-03T22:47:22.689Z,9.67
2019-05-03T22:49:54.742Z,8.83
2019-05-03T22:52:26.342Z,12.00
2019-05-03T22:54:56.738Z,8.07
2019-05-03T22:57:31.422Z,8.90
2019-05-03T23:00:01.799Z,7.80
2019-05-03T23:02:35.221Z,10.13
2019-05-03T23:05:06.263Z,9.77
2019-05-03T23:07:37.522Z,10.47
2019-05-03T23:10:09.404Z,9.20
2019-05-03T23:12:40.902Z,10.23
2019-05-03T23:15:12.219Z,12.47
2019-05-03T23:17:42.606Z,10.20
2019-05-03T23:20:22.252Z,7.37
2019-05-03T23:22:54.324Z,7.93
2019-05-03T23:25:25.087Z,6.83
2019-05-03T23:27:56.477Z,7.07
2019-05-03T23:30:26.816Z,7.47
2019-05-03T23:32:57.333Z,7.77
2019-05-03T23:35:27.803Z,7.60
2019-05-03T23:38:01.815Z,9.23
2019-05-03T23:40:32.245Z,16.17
2019-05-03T23:43:02.617Z,10.23
2019-05-03T23:45:34.784Z,13.27
2019-05-03T23:48:06.304Z,9.60
2019-05-03T23:50:36.643Z,11.03
2019-05-03T23:53:07.093Z,11.57
2019-05-03T23:55:56.372Z,10.17
2019-05-03T23:58:27.807Z,11.50
